Time;durP1;ratioP1;P1;durP2;ratioP2;P2;SDS_P1;SDS_P2;PMS_P1;PMS_P2;Temp;Humidity;BMP_temperature;BMP_pressure;BME280_temperature;BME280_humidity;BME280_pressure;Samples;Min_cycle;Max_cycle;Signal;HPM_P1;HPM_P2
2022/06/13 00:00:08;;;;;;;9.40;7.30;;;;;;;17.42;73.34;99284.10;109318;1274;22472;-57
2022/06/13 00:02:35;;;;;;;11.40;7.80;;;;;;;17.45;73.25;99286.62;109204;1274;138042;-56
2022/06/13 00:05:03;;;;;;;12.20;8.50;;;;;;;17.46;73.21;99283.49;109331;1274;22461;-57
2022/06/13 00:07:30;;;;;;;10.10;8.30;;;;;;;17.47;73.07;99285.19;109338;1274;22546;-56
2022/06/13 00:09:57;;;;;;;13.10;7.20;;;;;;;17.45;73.16;99281.66;109349;1274;139308;-56
2022/06/13 00:12:24;;;;;;;9.00;7.80;;;;;;;17.46;73.15;99276.30;109260;1274;22463;-54
2022/06/13 00:14:51;;;;;;;12.70;8.20;;;;;;;17.47;73.13;99277.39;109136;1274;140103;-55
2022/06/13 00:17:18;;;;;;;11.90;7.40;;;;;;;17.46;73.19;99275.23;109200;1274;22434;-54
2022/06/13 00:19:45;;;;;;;13.10;8.40;;;;;;;17.46;73.09;99277.90;109183;1274;139419;-55
2022/06/13 00:22:11;;;;;;;10.80;7.50;;;;;;;17.44;73.11;99276.31;109364;1273;22639;-55
2022/06/13 00:24:38;;;;;;;9.80;8.20;;;;;;;17.41;73.20;99275.31;109324;1274;22463;-55
2022/06/13 00:27:05;;;;;;;8.20;7.10;;;;;;;17.40;73.25;99274.40;109236;1274;138329;-55
2022/06/13 00:29:32;;;;;;;10.90;8.20;;;;;;;17.38;73.44;99272.77;109323;1274;22452;-55
2022/06/13 00:31:59;;;;;;;8.90;8.00;;;;;;;17.37;73.38;99271.43;109109;1274;139963;-56
2022/06/13 00:34:28;;;;;;;10.70;8.00;;;;;;;17.35;73.52;99273.50;109169;1274;22440;-56
2022/06/13 00:36:55;;;;;;;11.80;8.10;;;;;;;17.33;73.59;99271.29;109232;1274;22458;-57
2022/06/13 00:39:22;;;;;;;15.40;8.00;;;;;;;17.31;73.58;99271.92;109098;1275;140035;-56
2022/06/13 00:41:49;;;;;;;9.80;7.70;;;;;;;17.32;73.74;99277.91;109199;1274;22529;-56
2022/06/13 00:44:21;;;;;;;9.90;8.00;;;;;;;17.30;73.75;99273.74;109136;1274;139225;-55
2022/06/13 00:46:49;;;;;;;9.00;8.10;;;;;;;17.27;73.72;99273.48;109203;1274;22515;-56
2022/06/13 00:49:19;;;;;;;10.20;8.10;;;;;;;17.22;73.76;99277.24;109243;1273;23178;-56
2022/06/13 00:51:48;;;;;;;12.70;8.20;;;;;;;17.18;73.80;99276.44;109117;1274;139923;-55
2022/06/13 00:54:16;;;;;;;9.50;7.70;;;;;;;17.15;73.96;99275.42;109201;1274;23428;-55
2022/06/13 00:56:42;;;;;;;11.00;8.50;;;;;;;17.12;74.02;99274.39;109087;1274;139833;-55
2022/06/13 00:59:14;;;;;;;13.10;7.70;;;;;;;17.09;74.13;99270.81;109246;1274;22580;-55
2022/06/13 01:01:41;;;;;;;9.70;8.10;;;;;;;17.09;74.15;99273.08;109057;1275;139716;-56
2022/06/13 01:04:08;;;;;;;8.90;7.30;;;;;;;17.07;74.16;99268.70;109045;1274;23192;-55
2022/06/13 01:06:37;;;;;;;9.90;8.30;;;;;;;17.04;74.34;99268.22;109167;1274;23583;-55
2022/06/13 01:09:06;;;;;;;9.00;7.90;;;;;;;17.00;74.36;99266.67;109210;1273;140399;-55
2022/06/13 01:11:33;;;;;;;11.40;8.40;;;;;;;16.96;74.33;99266.29;109222;1273;22448;-55
2022/06/13 01:14:05;;;;;;;12.40;8.50;;;;;;;16.92;74.16;99267.51;109000;1274;139232;-55
2022/06/13 01:16:47;;;;;;;12.20;7.90;;;;;;;16.88;74.29;99265.18;109200;1274;22493;-55
2022/06/13 01:19:42;;;;;;;9.90;7.60;;;;;;;16.83;74.41;99268.05;109165;1274;22467;-55
2022/06/13 01:22:15;;;;;;;9.90;8.40;;;;;;;16.76;74.47;99268.27;109112;1276;22516;-55
2022/06/13 01:24:54;;;;;;;11.60;7.90;;;;;;;16.71;74.65;99269.38;109088;1274;22493;-55
2022/06/13 01:27:28;;;;;;;9.80;7.80;;;;;;;16.66;74.69;99270.35;109080;1274;139517;-55
2022/06/13 01:30:28;;;;;;;10.90;7.40;;;;;;;16.63;74.90;99268.52;109312;1274;23781;-55
2022/06/13 01:33:19;;;;;;;15.30;8.20;;;;;;;16.59;75.04;99271.69;108598;1281;138193;-55
2022/06/13 01:35:54;;;;;;;15.40;8.10;;;;;;;16.56;75.12;99273.91;108431;1282;22666;-55
2022/06/13 01:38:29;;;;;;;13.80;7.20;;;;;;;16.51;75.37;99273.33;108489;1282;138432;-55
2022/06/13 01:41:02;;;;;;;11.60;7.30;;;;;;;16.48;75.48;99277.23;108640;1282;22466;-56
2022/06/13 01:43:37;;;;;;;11.60;6.90;;;;;;;16.46;75.59;99274.80;108489;1283;22438;-56
2022/06/13 01:46:10;;;;;;;12.90;6.80;;;;;;;16.43;75.79;99275.54;108469;1282;140741;-55
2022/06/13 01:49:05;;;;;;;12.90;8.10;;;;;;;16.42;75.68;99275.29;108651;1281;22479;-56
2022/06/13 01:51:37;;;;;;;11.30;7.00;;;;;;;16.39;75.87;99277.41;108346;1283;138379;-56
2022/06/13 01:54:20;;;;;;;10.30;6.80;;;;;;;16.37;75.97;99280.48;108472;1282;22446;-56
2022/06/13 01:56:56;;;;;;;9.30;7.30;;;;;;;16.35;76.04;99278.86;108424;1282;138125;-56
2022/06/13 01:59:27;;;;;;;8.00;6.90;;;;;;;16.34;76.12;99277.22;108568;1282;22592;-56
2022/06/13 02:02:05;;;;;;;13.30;8.00;;;;;;;16.31;76.19;99273.47;108271;1282;138197;-56
2022/06/13 02:04:34;;;;;;;9.30;7.30;;;;;;;16.28;76.21;99274.04;108482;1281;22522;-56
2022/06/13 02:07:07;;;;;;;9.40;8.00;;;;;;;16.25;76.38;99271.52;105358;1282;22558;-55
2022/06/13 02:09:38;;;;;;;10.20;7.70;;;;;;;16.22;76.52;99270.34;108740;1274;138027;-56
2022/06/13 02:12:05;;;;;;;9.70;7.60;;;;;;;16.20;76.55;99269.27;109183;1274;22599;-56
2022/06/13 02:14:35;;;;;;;12.00;8.20;;;;;;;16.20;76.91;99274.59;109096;1274;138245;-56
2022/06/13 02:17:12;;;;;;;8.20;7.10;;;;;;;16.23;77.17;99275.98;109341;1274;22569;-56
2022/06/13 02:19:47;;;;;;;11.30;7.50;;;;;;;16.27;77.30;99280.77;109213;1276;22419;-56
2022/06/13 02:22:40;;;;;;;15.20;8.00;;;;;;;16.29;77.37;99281.18;109198;1274;22543;-56
2022/06/13 02:25:32;;;;;;;11.20;8.00;;;;;;;16.31;77.50;99279.58;109270;1274;23608;-55
2022/06/13 02:28:17;;;;;;;13.40;8.10;;;;;;;16.35;77.68;99277.64;109018;1274;138411;-56
2022/06/13 02:30:53;;;;;;;10.60;7.70;;;;;;;16.38;77.60;99278.59;108884;1274;22532;-56
2022/06/13 02:33:37;;;;;;;10.10;7.90;;;;;;;16.39;77.72;99275.60;109071;1275;140063;-56
2022/06/13 02:36:21;;;;;;;8.80;7.40;;;;;;;16.40;77.70;99275.91;107739;1273;26189;-56
2022/06/13 02:39:07;;;;;;;12.50;8.70;;;;;;;16.43;77.79;99278.40;104712;1276;138104;-55
2022/06/13 02:41:47;;;;;;;12.30;8.80;;;;;;;16.46;78.03;99281.17;104952;1274;25249;-55
2022/06/13 02:44:18;;;;;;;10.50;7.80;;;;;;;16.49;78.08;99280.02;104707;1276;139267;-55
2022/06/13 02:46:52;;;;;;;10.80;7.60;;;;;;;16.50;77.97;99281.98;109207;1274;22482;-55
2022/06/13 02:49:22;;;;;;;10.60;7.70;;;;;;;16.51;78.04;99281.10;109113;1275;22697;-56
2022/06/13 02:52:16;;;;;;;13.00;8.70;;;;;;;16.52;78.14;99281.89;108990;1274;138260;-55
2022/06/13 02:55:04;;;;;;;10.60;7.90;;;;;;;16.55;78.39;99281.68;109199;1274;22475;-55
2022/06/13 02:57:43;;;;;;;9.90;7.40;;;;;;;16.59;78.63;99278.85;109145;1273;138625;-55
2022/06/13 03:00:37;;;;;;;14.50;8.10;;;;;;;16.65;78.74;99280.33;109202;1275;23393;-56
2022/06/13 03:03:26;;;;;;;11.00;8.10;;;;;;;16.72;79.22;99280.57;108965;1275;139483;-56
2022/06/13 03:06:09;;;;;;;15.20;8.30;;;;;;;16.81;79.44;99282.33;109121;1273;22596;-56
2022/06/13 03:08:45;;;;;;;12.20;7.60;;;;;;;16.89;79.52;99281.13;109098;1275;138349;-55
2022/06/13 03:11:35;;;;;;;13.30;8.00;;;;;;;16.94;79.45;99281.62;109055;1276;22380;-56
2022/06/13 03:14:39;;;;;;;15.50;8.20;;;;;;;17.02;79.44;99286.11;108896;1274;138566;-55
2022/06/13 03:17:14;;;;;;;13.90;9.70;;;;;;;17.11;79.51;99288.45;109118;1276;22574;-56
2022/06/13 03:19:47;;;;;;;9.60;8.60;;;;;;;17.21;79.57;99292.09;109091;1273;139665;-57
2022/06/13 03:22:29;;;;;;;12.00;8.80;;;;;;;17.31;79.64;99293.20;109182;1276;22505;-56
2022/06/13 03:25:30;;;;;;;14.30;8.80;;;;;;;17.41;79.53;99290.34;109156;1276;22541;-56
2022/06/13 03:28:09;;;;;;;11.10;8.60;;;;;;;17.55;79.41;99288.11;109129;1276;138790;-56
2022/06/13 03:30:42;;;;;;;17.50;8.80;;;;;;;17.67;79.40;99291.12;109168;1275;22478;-57
2022/06/13 03:35:57;;;;;;;9.60;7.30;;;;;;;17.92;78.37;99290.38;109119;1273;23817;-56
2022/06/13 03:38:39;;;;;;;13.50;7.10;;;;;;;18.03;78.00;99295.45;109064;1273;139325;-56
2022/06/13 03:41:06;;;;;;;9.20;6.20;;;;;;;18.15;77.53;99298.37;105445;1277;22544;-56
2022/06/13 03:43:52;;;;;;;8.20;6.20;;;;;;;18.25;77.10;99297.23;104700;1275;22557;-56
2022/06/13 03:46:39;;;;;;;9.50;6.40;;;;;;;18.36;76.56;99298.15;104661;1276;22767;-55
2022/06/13 03:49:38;;;;;;;10.50;6.40;;;;;;;18.47;76.19;99296.61;104914;1274;22557;-55
2022/06/13 03:52:06;;;;;;;7.00;6.30;;;;;;;18.55;75.60;99295.48;109215;1273;138397;-56
2022/06/13 03:54:37;;;;;;;9.00;6.80;;;;;;;18.64;75.00;99303.35;109204;1274;22266;-56
2022/06/13 03:57:15;;;;;;;9.30;6.90;;;;;;;18.71;74.71;99302.20;109156;1273;140447;-55
2022/06/13 03:59:49;;;;;;;13.70;7.80;;;;;;;18.78;74.61;99299.92;109236;1274;22461;-56
2022/06/13 04:02:18;;;;;;;14.40;8.90;;;;;;;18.84;74.46;99300.80;109205;1273;138470;-56
2022/06/13 04:04:47;;;;;;;11.20;7.00;;;;;;;18.89;74.35;99305.56;109002;1273;22538;-54
2022/06/13 04:07:14;;;;;;;15.00;7.30;;;;;;;18.95;74.58;99302.30;109244;1273;23111;-54
2022/06/13 04:09:53;;;;;;;14.00;8.70;;;;;;;19.03;74.51;99308.70;109046;1273;140739;-55
2022/06/13 04:12:48;;;;;;;12.00;7.70;;;;;;;19.13;74.64;99314.29;109230;1273;22449;-55
2022/06/13 04:15:33;;;;;;;8.50;7.20;;;;;;;19.22;74.51;99315.39;109069;1273;139577;-54
2022/06/13 04:18:37;;;;;;;11.30;7.60;;;;;;;19.29;74.02;99311.89;109193;1274;22473;-55
2022/06/13 04:21:04;;;;;;;11.30;7.80;;;;;;;19.32;73.67;99307.49;109199;1274;138510;-54
2022/06/13 04:24:02;;;;;;;10.40;7.70;;;;;;;19.38;73.60;99313.27;109203;1273;22495;-55
2022/06/13 04:26:41;;;;;;;9.00;7.00;;;;;;;19.45;73.32;99314.14;108996;1276;138978;-55
2022/06/13 04:29:29;;;;;;;9.80;6.60;;;;;;;19.51;73.25;99313.87;109263;1274;22626;-55
2022/06/13 04:31:57;;;;;;;;;;;;;;;19.58;73.23;99317.02;109052;1274;139191;-56
2022/06/13 04:34:27;;;;;;;8.50;6.20;;;;;;;19.66;72.92;99314.30;109226;1273;23363;-56
2022/06/13 04:36:53;;;;;;;7.30;5.70;;;;;;;19.73;72.71;99315.36;109045;1275;23346;-56
2022/06/13 04:39:23;;;;;;;8.10;6.50;;;;;;;19.80;72.53;99312.59;109228;1273;138218;-56
2022/06/13 04:41:52;;;;;;;9.70;6.10;;;;;;;19.88;72.50;99307.83;109062;1274;22542;-56
2022/06/13 04:44:20;;;;;;;10.10;6.70;;;;;;;19.95;72.31;99310.05;108986;1274;139262;-56
2022/06/13 04:46:47;;;;;;;6.20;5.60;;;;;;;20.03;71.81;99310.60;106315;1276;24369;-55
2022/06/13 04:49:19;;;;;;;7.20;5.40;;;;;;;20.10;71.50;99306.70;104805;1276;24128;-54
2022/06/13 04:51:46;;;;;;;11.60;6.40;;;;;;;20.16;71.13;99306.42;109108;1274;138757;-55
2022/06/13 04:54:39;;;;;;;9.00;5.60;;;;;;;20.21;70.67;99306.17;109215;1274;22413;-55
2022/06/13 04:57:06;;;;;;;10.20;5.90;;;;;;;20.29;70.40;99304.22;109193;1274;138221;-55
2022/06/13 04:59:33;;;;;;;8.10;6.50;;;;;;;20.37;70.28;99304.23;109154;1274;22558;-55
2022/06/13 05:02:00;;;;;;;8.20;6.10;;;;;;;20.46;69.78;99307.81;109063;1274;138213;-55
2022/06/13 05:04:29;;;;;;;7.00;6.30;;;;;;;20.55;69.50;99309.00;109005;1275;22467;-56
2022/06/13 05:07:07;;;;;;;7.10;5.30;;;;;;;20.65;69.13;99304.83;109312;1274;23421;-55
2022/06/13 05:09:35;;;;;;;8.10;6.00;;;;;;;20.79;68.64;99311.83;109031;1276;139737;-55
2022/06/13 05:12:07;;;;;;;8.00;5.70;;;;;;;20.93;68.11;99310.84;109261;1274;22502;-55
2022/06/13 05:14:43;;;;;;;9.00;5.50;;;;;;;21.07;67.27;99311.92;109107;1274;138203;-55
2022/06/13 05:17:47;;;;;;;8.10;5.60;;;;;;;21.25;66.88;99312.02;109345;1274;22515;-55
2022/06/13 05:20:44;;;;;;;8.70;4.80;;;;;;;21.54;65.85;99313.79;109081;1274;138384;-55
2022/06/13 05:23:21;;;;;;;8.70;6.10;;;;;;;21.86;64.52;99311.16;109187;1274;22946;-56
2022/06/13 05:25:48;;;;;;;7.40;5.30;;;;;;;22.19;63.35;99310.92;109039;1274;137523;-57
2022/06/13 05:28:20;;;;;;;8.30;4.80;;;;;;;22.55;62.42;99310.48;109115;1274;22402;-56
2022/06/13 05:30:48;;;;;;;6.50;5.00;;;;;;;22.91;61.05;99313.97;109245;1274;23113;-56
2022/06/13 05:33:17;;;;;;;8.50;5.00;;;;;;;23.26;59.64;99319.14;109028;1276;137936;-56
2022/06/13 05:35:44;;;;;;;7.50;5.00;;;;;;;23.64;58.84;99314.17;109211;1274;22380;-56
2022/06/13 05:38:17;;;;;;;5.40;4.90;;;;;;;24.00;58.04;99315.94;109027;1274;138438;-56
2022/06/13 05:40:45;;;;;;;8.50;5.00;;;;;;;24.39;56.84;99312.77;109074;1276;22467;-56
2022/06/13 05:43:12;;;;;;;6.60;4.70;;;;;;;24.63;55.70;99314.23;109279;1274;22381;-56
2022/06/13 05:45:39;;;;;;;7.90;5.30;;;;;;;24.82;55.00;99312.05;109161;1274;140476;-56
2022/06/13 05:48:11;;;;;;;6.80;5.50;;;;;;;25.01;54.58;99312.74;109200;1274;22612;-56
2022/06/13 05:50:37;;;;;;;6.10;5.40;;;;;;;25.13;53.61;99312.31;108984;1275;137530;-56
2022/06/13 05:53:04;;;;;;;6.30;4.40;;;;;;;25.14;53.19;99315.60;109150;1274;22626;-56
2022/06/13 05:55:31;;;;;;;5.20;4.70;;;;;;;25.08;52.54;99312.20;109285;1274;23207;-56
2022/06/13 05:58:00;;;;;;;8.20;5.40;;;;;;;24.99;52.99;99315.24;109278;1274;137556;-56
2022/06/13 06:00:29;;;;;;;9.70;4.60;;;;;;;24.96;53.00;99314.06;109298;1274;22629;-56
2022/06/13 06:02:55;;;;;;;5.70;5.10;;;;;;;24.90;52.86;99315.29;108971;1274;137359;-56
2022/06/13 06:05:22;;;;;;;5.80;4.50;;;;;;;24.82;52.83;99311.74;109177;1275;22236;-58
2022/06/13 06:07:49;;;;;;;9.40;4.90;;;;;;;24.77;52.89;99314.22;109097;1274;139238;-56
2022/06/13 06:10:17;;;;;;;8.10;4.50;;;;;;;24.65;53.31;99313.35;109205;1275;23264;-56
2022/06/13 06:12:44;;;;;;;5.20;4.70;;;;;;;24.54;53.44;99314.55;109088;1274;23535;-56
2022/06/13 06:15:11;;;;;;;5.80;5.20;;;;;;;24.45;53.63;99311.61;109195;1274;138387;-56
2022/06/13 06:17:38;;;;;;;5.30;4.40;;;;;;;24.35;54.15;99318.25;109127;1275;24248;-56
2022/06/13 06:20:05;;;;;;;7.10;4.40;;;;;;;24.25;54.82;99312.86;109166;1274;138503;-56
2022/06/13 06:22:32;;;;;;;5.20;4.40;;;;;;;24.20;54.36;99315.95;109242;1275;22589;-56
2022/06/13 06:24:59;;;;;;;5.10;3.90;;;;;;;24.14;54.06;99317.60;109423;1274;22574;-56
2022/06/13 06:27:26;;;;;;;4.90;3.60;;;;;;;24.07;53.88;99317.02;109099;1276;139328;-57
2022/06/13 06:29:53;;;;;;;6.60;3.70;;;;;;;23.99;53.78;99316.77;109096;1275;22541;-56
2022/06/13 06:32:19;;;;;;;5.30;3.90;;;;;;;23.92;53.81;99309.48;109283;1274;137498;-56
2022/06/13 06:34:46;;;;;;;5.80;4.50;;;;;;;23.85;54.01;99312.70;109226;1275;23367;-57
2022/06/13 06:37:13;;;;;;;4.50;3.80;;;;;;;23.79;54.72;99315.79;109228;1274;23344;-56
2022/06/13 06:39:39;;;;;;;4.90;3.50;;;;;;;23.78;54.60;99312.49;109054;1276;137445;-56
2022/06/13 06:42:06;;;;;;;4.30;3.90;;;;;;;23.79;54.32;99306.72;109276;1274;22621;-56
2022/06/13 06:44:33;;;;;;;5.50;3.70;;;;;;;23.81;54.79;99313.12;109155;1274;137419;-56
2022/06/13 06:47:00;;;;;;;7.80;4.30;;;;;;;23.81;54.64;99314.14;108871;1275;439155;-56
2022/06/13 06:51:44;;;;;;;5.80;4.20;;;;;;;23.80;54.77;99309.75;101672;1309;545199;-54
2022/06/13 06:59:54;;;;;;;4.40;4.00;;;;;;;23.77;54.98;99307.58;104271;1284;24289;-55
2022/06/13 07:02:26;;;;;;;4.40;4.00;;;;;;;23.76;54.95;99308.20;104057;1286;137115;-55
2022/06/13 07:04:54;;;;;;;4.30;3.50;;;;;;;23.75;54.78;99305.05;108383;1281;226142;-56
2022/06/13 07:07:21;;;;;;;4.00;3.60;;;;;;;23.71;54.74;99307.80;109347;1273;22439;-55
2022/06/13 07:09:48;;;;;;;5.70;3.90;;;;;;;23.71;54.64;99308.60;109352;1273;137353;-55
2022/06/13 07:12:15;;;;;;;6.20;4.60;;;;;;;23.73;54.77;99311.21;109402;1273;22394;-55
2022/06/13 07:14:42;;;;;;;5.00;3.70;;;;;;;23.77;54.51;99306.80;109353;1273;136883;-55
2022/06/13 07:17:09;;;;;;;16.20;4.30;;;;;;;23.82;55.05;99308.30;109439;1273;22692;-56
2022/06/13 07:19:36;;;;;;;3.90;3.50;;;;;;;23.88;55.21;99307.14;109484;1273;22653;-57
2022/06/13 07:22:04;;;;;;;5.90;3.40;;;;;;;23.93;54.66;99305.30;109315;1273;137081;-56
2022/06/13 07:24:34;;;;;;;7.80;3.80;;;;;;;23.99;53.98;99303.01;109423;1273;22502;-56
2022/06/13 07:27:00;;;;;;;4.60;4.00;;;;;;;24.08;53.99;99308.91;109248;1273;138060;-55
2022/06/13 07:29:27;;;;;;;7.40;3.90;;;;;;;24.12;54.13;99306.81;109340;1273;22512;-55
2022/06/13 07:32:01;;;;;;;9.80;4.20;;;;;;;24.16;54.09;99293.16;109288;1273;138918;-55
2022/06/13 07:34:29;;;;;;;4.50;4.10;;;;;;;24.18;53.75;99300.15;108951;1275;23376;-55
2022/06/13 07:36:57;;;;;;;4.00;3.60;;;;;;;24.21;53.44;99304.37;107262;1274;22389;-56
2022/06/13 07:39:24;;;;;;;4.50;3.80;;;;;;;24.19;52.99;99311.07;107068;1273;137634;-55
2022/06/13 07:41:51;;;;;;;3.80;3.40;;;;;;;24.17;53.10;99305.20;107215;1273;22407;-56
2022/06/13 07:44:26;;;;;;;5.50;4.00;;;;;;;24.16;53.03;99297.16;107193;1273;138498;-56
2022/06/13 07:46:53;;;;;;;3.70;3.30;;;;;;;24.22;53.18;99297.34;107126;1273;25014;-56
2022/06/13 07:49:20;;;;;;;4.10;3.00;;;;;;;24.25;52.09;99293.20;107322;1273;22500;-56
2022/06/13 07:51:47;;;;;;;5.90;3.40;;;;;;;24.31;51.42;99298.96;107166;1273;139451;-55
2022/06/13 07:54:14;;;;;;;3.70;3.20;;;;;;;24.39;51.73;99304.83;107270;1273;22480;-55
2022/06/13 07:56:41;;;;;;;3.40;3.10;;;;;;;24.44;52.12;99295.09;107166;1274;138907;-55
2022/06/13 07:59:15;;;;;;;5.00;3.00;;;;;;;24.53;51.25;99296.56;107132;1275;23278;-55
2022/06/13 08:01:42;;;;;;;3.60;2.60;;;;;;;24.59;50.88;99297.83;107041;1273;138203;-55
2022/06/13 08:04:09;;;;;;;4.80;2.70;;;;;;;24.64;49.86;99297.98;107212;1273;22429;-55
2022/06/13 08:06:41;;;;;;;3.30;3.00;;;;;;;24.65;49.16;99293.15;105267;1274;22555;-55
2022/06/13 08:09:09;;;;;;;7.00;2.80;;;;;;;24.63;49.16;99283.70;103652;1275;138266;-55
2022/06/13 08:11:47;;;;;;;2.80;2.10;;;;;;;24.63;47.87;99287.83;103743;1276;22605;-55
2022/06/13 08:14:14;;;;;;;8.10;3.10;;;;;;;24.65;47.56;99287.89;103653;1273;137922;-55
2022/06/13 08:16:41;;;;;;;4.10;2.70;;;;;;;24.67;49.12;99283.16;103776;1276;23044;-55
2022/06/13 08:19:08;;;;;;;8.80;3.50;;;;;;;24.73;49.56;99283.93;107241;1274;22462;-56
2022/06/13 08:21:35;;;;;;;3.50;3.20;;;;;;;24.80;49.97;99282.92;107002;1276;137654;-56
2022/06/13 08:24:04;;;;;;;6.30;3.20;;;;;;;24.85;50.14;99283.79;107172;1276;22428;-56
2022/06/13 08:26:39;;;;;;;3.70;2.90;;;;;;;24.92;50.57;99279.45;107232;1273;137586;-56
2022/06/13 08:29:06;;;;;;;3.80;3.20;;;;;;;25.01;50.31;99276.10;107217;1273;22907;-56
2022/06/13 08:31:33;;;;;;;3.20;2.40;;;;;;;25.06;49.03;99279.11;107171;1273;22465;-56
2022/06/13 08:34:04;;;;;;;5.20;2.90;;;;;;;25.08;48.18;99278.52;106866;1276;138573;-55
2022/06/13 08:36:31;;;;;;;5.70;2.40;;;;;;;25.08;48.07;99277.55;107222;1275;22587;-56
2022/06/13 08:38:57;;;;;;;3.40;2.30;;;;;;;25.07;47.67;99274.65;107121;1274;137663;-56
2022/06/13 08:41:43;;;;;;;2.80;2.60;;;;;;;25.07;46.85;99276.89;107158;1275;23754;-56
2022/06/13 08:44:17;;;;;;;4.00;2.60;;;;;;;25.05;47.14;99278.03;107148;1273;137732;-56
2022/06/13 08:46:55;;;;;;;3.20;2.60;;;;;;;25.03;47.03;99275.05;107104;1275;22507;-56
2022/06/13 08:49:35;;;;;;;4.60;2.70;;;;;;;25.01;46.75;99268.62;107278;1273;22514;-56
2022/06/13 08:52:18;;;;;;;3.00;2.80;;;;;;;25.03;46.65;99268.19;107160;1273;139312;-56
2022/06/13 08:54:47;;;;;;;3.00;2.80;;;;;;;25.07;47.43;99270.35;107274;1274;22481;-56
2022/06/13 08:57:19;;;;;;;3.00;2.70;;;;;;;25.11;47.28;99264.40;107104;1273;137176;-56
2022/06/13 08:59:52;;;;;;;4.00;2.70;;;;;;;25.14;47.65;99264.96;107208;1273;22434;-55
2022/06/13 09:02:28;;;;;;;3.20;2.90;;;;;;;25.19;47.37;99258.07;106905;1273;138450;-55
2022/06/13 09:05:02;;;;;;;4.30;3.20;;;;;;;25.23;46.91;99253.23;107235;1275;24443;-55
2022/06/13 09:07:37;;;;;;;5.60;3.10;;;;;;;25.29;47.21;99253.20;107233;1274;23207;-55
2022/06/13 09:10:06;;;;;;;5.30;3.90;;;;;;;25.34;47.22;99257.80;107098;1274;137590;-56
2022/06/13 09:12:46;;;;;;;4.60;3.30;;;;;;;25.36;46.08;99260.00;107317;1273;24646;-56
2022/06/13 09:15:18;;;;;;;4.30;2.80;;;;;;;25.36;46.45;99258.08;107249;1274;139925;-56
2022/06/13 09:17:54;;;;;;;3.30;3.00;;;;;;;25.39;45.90;99250.48;107250;1274;24756;-56
2022/06/13 09:20:21;;;;;;;;;;;;;;;25.37;46.03;99246.72;107101;1274;139507;-56
2022/06/13 09:22:51;;;;;;;4.50;2.90;;;;;;;25.37;46.28;99244.31;107290;1274;22464;-56
2022/06/13 09:25:42;;;;;;;4.20;3.30;;;;;;;25.39;46.54;99244.83;107181;1275;22484;-56
2022/06/13 09:28:23;;;;;;;6.80;2.70;;;;;;;25.46;45.66;99252.15;107229;1274;22518;-56
2022/06/13 09:31:07;;;;;;;2.80;2.60;;;;;;;25.53;45.49;99251.70;107231;1273;22541;-56
2022/06/13 09:33:35;;;;;;;3.30;2.50;;;;;;;25.62;44.40;99247.38;107173;1275;138391;-57
2022/06/13 09:36:12;;;;;;;3.80;2.50;;;;;;;25.69;44.37;99246.41;107225;1273;22531;-57
2022/06/13 09:38:44;;;;;;;3.10;2.70;;;;;;;25.74;43.78;99248.35;107199;1273;137346;-57
2022/06/13 09:41:27;;;;;;;2.90;2.60;;;;;;;25.76;43.80;99252.63;107113;1274;22456;-57
2022/06/13 09:44:06;;;;;;;4.90;2.30;;;;;;;25.78;43.80;99250.77;107172;1274;139298;-56
2022/06/13 09:47:01;;;;;;;4.50;2.50;;;;;;;25.77;43.74;99252.81;107229;1274;22589;-55
2022/06/13 09:49:52;;;;;;;2.70;2.50;;;;;;;25.76;43.83;99256.85;107235;1273;22429;-55
2022/06/13 09:52:26;;;;;;;2.30;2.10;;;;;;;25.69;43.47;99254.55;107155;1276;22438;-56
2022/06/13 09:55:00;;;;;;;2.60;2.40;;;;;;;25.61;43.52;99247.60;107204;1276;23180;-56
2022/06/13 09:57:39;;;;;;;2.90;2.60;;;;;;;25.55;43.13;99245.44;107080;1275;138949;-56
2022/06/13 10:00:09;;;;;;;2.30;2.10;;;;;;;25.49;42.91;99247.13;107162;1275;23185;-56
2022/06/13 10:03:16;;;;;;;2.70;2.50;;;;;;;25.47;42.88;99248.52;107063;1274;139347;-56
2022/06/13 10:06:12;;;;;;;3.30;2.30;;;;;;;25.48;42.04;99243.29;107209;1275;23525;-56
2022/06/13 10:08:43;;;;;;;4.40;2.20;;;;;;;25.50;42.68;99231.55;106629;1281;137700;-56
2022/06/13 10:11:48;;;;;;;7.00;2.80;;;;;;;25.58;42.27;99238.95;106747;1280;22621;-56
2022/06/13 10:14:20;;;;;;;2.50;2.30;;;;;;;25.69;42.18;99235.27;106610;1280;139121;-56
2022/06/13 10:17:13;;;;;;;2.60;2.30;;;;;;;25.79;40.92;99240.75;106782;1281;22892;-60
2022/06/13 10:19:43;;;;;;;2.50;2.10;;;;;;;25.88;39.77;99232.71;106747;1280;24084;-60
2022/06/13 10:22:13;;;;;;;4.20;2.10;;;;;;;25.94;39.16;99230.05;106864;1280;22405;-60
2022/06/13 10:24:45;;;;;;;2.30;2.10;;;;;;;26.01;39.59;99230.34;106688;1281;23047;-59
2022/06/13 10:27:36;;;;;;;2.90;2.30;;;;;;;26.11;39.66;99231.02;106834;1280;138616;-60
2022/06/13 10:30:07;;;;;;;5.80;2.40;;;;;;;26.22;39.87;99220.80;106939;1280;23511;-60
2022/06/13 10:32:40;;;;;;;3.00;2.10;;;;;;;26.32;39.74;99218.69;106609;1281;137529;-60
2022/06/13 10:35:10;;;;;;;3.60;2.50;;;;;;;26.37;38.89;99218.80;106737;1281;22485;-60
2022/06/13 10:37:52;;;;;;;3.20;2.70;;;;;;;26.40;38.66;99216.52;106801;1281;22622;-59
2022/06/13 10:40:19;;;;;;;3.00;2.40;;;;;;;26.36;39.82;99220.70;106736;1280;22452;-60
2022/06/13 10:42:46;;;;;;;2.90;2.40;;;;;;;26.35;40.36;99219.48;106941;1280;22493;-60
2022/06/13 10:45:14;;;;;;;4.10;2.70;;;;;;;26.36;39.99;99221.65;106842;1277;138605;-60
2022/06/13 10:47:46;;;;;;;3.10;2.80;;;;;;;26.35;40.25;99221.08;107236;1274;22465;-60
2022/06/13 10:50:33;;;;;;;2.50;2.30;;;;;;;26.31;39.95;99220.45;107147;1274;138319;-60
2022/06/13 10:53:02;;;;;;;5.70;3.40;;;;;;;26.25;40.05;99215.81;107127;1275;23768;-60
2022/06/13 10:55:31;;;;;;;3.80;2.80;;;;;;;26.21;39.90;99212.72;107143;1274;24570;-60
2022/06/13 10:58:02;;;;;;;3.50;2.60;;;;;;;26.15;40.12;99209.64;107127;1274;137014;-60
2022/06/13 11:00:30;;;;;;;3.10;2.50;;;;;;;26.15;39.64;99207.80;107211;1274;23185;-59
2022/06/13 11:03:15;;;;;;;3.40;2.40;;;;;;;26.17;39.47;99206.40;107100;1274;139145;-60
2022/06/13 11:05:52;;;;;;;2.50;2.20;;;;;;;26.17;38.77;99205.61;107233;1274;22465;-60
2022/06/13 11:08:19;;;;;;;2.30;2.10;;;;;;;26.11;38.49;99201.41;106959;1277;138997;-61
2022/06/13 11:11:13;;;;;;;7.10;3.10;;;;;;;26.10;38.73;99205.48;107280;1274;22532;-61
2022/06/13 11:13:40;;;;;;;5.00;2.60;;;;;;;26.04;38.39;99203.77;107216;1274;22474;-60
2022/06/13 11:24:45;;;;;;;2.90;2.50;;;;;;;25.72;38.55;99202.30;107252;1274;22435;-60
2022/06/13 11:27:41;;;;;;;4.40;2.60;;;;;;;25.65;38.69;99203.29;107064;1275;138277;-60
2022/06/13 11:30:28;;;;;;;4.30;2.30;;;;;;;25.61;38.09;99198.81;107236;1274;23059;-60
2022/06/13 11:32:55;;;;;;;3.90;2.40;;;;;;;25.58;38.08;99199.02;107063;1274;137468;-60
2022/06/13 11:35:29;;;;;;;2.30;1.80;;;;;;;25.56;38.14;99202.96;107253;1274;22415;-60
2022/06/13 11:38:24;;;;;;;3.70;1.80;;;;;;;25.54;38.16;99197.10;107070;1274;138651;-60
2022/06/13 11:41:16;;;;;;;2.90;2.30;;;;;;;25.53;38.10;99193.09;107226;1274;24509;-60
2022/06/13 11:43:50;;;;;;;3.90;2.20;;;;;;;25.52;38.10;99189.02;107174;1274;139492;-60
2022/06/13 11:46:27;;;;;;;5.00;2.50;;;;;;;25.56;37.81;99191.02;107163;1274;23952;-60
2022/06/13 11:48:54;;;;;;;2.60;2.00;;;;;;;25.58;37.97;99181.18;107217;1274;23599;-60
2022/06/13 11:51:24;;;;;;;6.00;2.30;;;;;;;25.62;38.23;99177.30;107064;1274;139751;-59
2022/06/13 11:53:52;;;;;;;1.80;1.60;;;;;;;25.65;38.35;99176.58;107046;1275;23599;-59
2022/06/13 11:56:32;;;;;;;3.20;2.00;;;;;;;25.70;38.31;99176.50;107100;1275;139556;-59
2022/06/13 11:59:02;;;;;;;3.80;2.50;;;;;;;25.74;38.35;99174.77;107133;1275;22452;-59
2022/06/13 12:01:38;;;;;;;12.30;3.50;;;;;;;25.79;38.31;99175.02;107185;1274;22374;-60
2022/06/13 12:04:11;;;;;;;4.30;2.80;;;;;;;25.83;39.40;99174.63;107200;1274;139041;-60
2022/06/13 12:06:44;;;;;;;8.70;3.00;;;;;;;25.86;40.15;99171.73;107198;1274;22505;-61
2022/06/13 12:09:15;;;;;;;3.00;2.40;;;;;;;25.83;40.12;99168.40;107175;1274;137962;-61